Friday, October 24, 2014
18:05 UTC
  |  Log In   |  Register Free
Airport Search:

Pedro Bay Airport
(4K0)

Pedro Bay Airport Diagram
No Airport Diagram Available

FAA data valid effective September 18, 2014 - November 13, 2014 (unless otherwise noted).

 
 
 
 
 
 
 
 
 
 
 
 
 
 

Current Aviation Weather for Pedro Bay Airport (4K0)

METAR data is unavailable for 4K0. The nearest METAR location is at PAIL (23.7 nm SW from 4K0).

The most recent METAR observation for PAIL was updated at: 1726
METAR Summary (Translated METAR)
PAIL
241653Z 34006KT 10SM OVC055 M01/M02 A2983 RMK AO2 SLP106 T10061017
(23.7 nm SW from 4K0)
PAIL
241653Z 34006KT 10SM OVC055 M01/M02 A2983 RMK AO2 SLP106 T10061017
(23.7 nm SW from 4K0)
TAF Summary (Translated TAF)
PAIL
241430Z 2415/2512 VRB04KT 5SM -SN BR OVC035 TEMPO 2415/2418 1 1/2SM -SN BKN025 FM241800 33008KT P6SM SCT025 BKN045 FM242100 31008KT P6SM SCT060
PAIL
241430Z 2415/2512 VRB04KT 5SM -SN BR OVC035 TEMPO 2415/2418 1 1/2SM -SN BKN025 FM241800 33008KT P6SM SCT025 BKN045 FM242100 31008KT P6SM SCT060
  Airport Weather Conditions for 4K0

Current weather conditions are
not available for 4K0


The nearest NOAA weather station
is at ILI, (23.7 nm SW from 4K0)
  
 Current Weather at ILI
31° F
Overcast
North winds at 9.2 mph
ILI NOAA Radar

Pressure: 29.82 in
Humidity: 92%
Wind: North at 9.2 MPH (8 KT)
Dew Point: 28.9°F
Visibility: 10.00 mi


Airport Weather Forecast for 4K0

Translated METAR and TAF for PAIL
Translated METAR for PAIL (1800 UTC 24 October 2014)
found at http://aviationweather.gov/adds/metars/
 
METAR text: PAIL 241753Z 35004KT 10SM OVC090 M01/M02 A2985 RMK AO2 SNB20E45 SLP111 P0000 60002 T10061022 11006 21017 53014
Conditions at: PAIL (ILIAMNA , AK, US) observed 1753 UTC 24 October 2014
Temperature: -0.6°C (31°F)
Dewpoint: -2.2°C (28°F) [RH = 89%]
Pressure (altimeter): 29.85 inches Hg (1010.9 mb)
[Sea-level pressure: 1011.1 mb]
Winds: from the N (350 degrees) at 5 MPH (4 knots; 2.1 m/s)
Visibility: 10 or more miles (16+ km)
Ceiling: 9000 feet AGL
Clouds: overcast cloud deck at 9000 feet AGL
Weather: no significant weather observed at this time
Translated TAF for PAIL
Forecast for: PAIL (ILIAMNA , AK, US)
TAF Text: PAIL 241741Z 2418/2518 34007KT P6SM VCSH SCT025 BKN045
Forecast period: 1800 to 2200 UTC 24 October 2014
Forecast type: FROM: standard forecast or significant change
Winds: from the NNW (340 degrees) at 8 MPH (7 knots; 3.6 m/s)
Visibility: 6 or more miles (10+ km)
Ceiling: 4500 feet AGL
Clouds: scattered clouds at 2500 feet AGL
broken clouds at 4500 feet AGL
Weather: VCSH  (showers in vicinity)
TAF Text: FM242200 31008KT P6SM SCT060
Forecast period: 2200 UTC 24 October 2014 to 1500 UTC 25 October 2014
Forecast type: FROM: standard forecast or significant change
Winds: from the NW (310 degrees) at 9 MPH (8 knots; 4.2 m/s)
Visibility: 6 or more miles (10+ km)
Clouds: scattered clouds at 6000 feet AGL
Weather: no significant weather forecast for this period
TAF Text: FM251500 35005KT P6SM VCFG FEW005
Forecast period: 1500 to 1800 UTC 25 October 2014
Forecast type: FROM: standard forecast or significant change
Winds: from the N (350 degrees) at 6 MPH (5 knots; 2.6 m/s)
Visibility: 6 or more miles (10+ km)
Clouds: few clouds at 500 feet AGL
Weather: VCFG  (fog in vicinity)

Find All Airport Services Find A Hotel Find A Rental Car Find A Golf Course Find A Restaurant $100 Hamburger



FBO's on the Field
FBO Company Facility Photos Services Transportation Aviation Fuel Prices: Prices include tax
Catering Weather Repair Courtesy Rental Type 100LL JetA JetA+ MOGAS 8087
 
Add another FBO Facility Photos Catering Weather Repair Courtesy Rental Type 100LL JetA JetA+ MOGAS 8087
Services Transportation Aviation Fuel Prices: Prices include tax
There are no FBO's currently reporting fuel at 4K0. List your FBO now


model-print
model-print
model-print
model-print